M I D A S
Marine Information and Data Acquisition System
Tripno 1243 of the Zeeleeuw from 2007-03-30 07:34:46 to 2007-03-30 14:13:55
Back to CruiseResearch ActivitiesStationsMapUnderway DataData graphs

EquipmentUnitsComment
TimeDGPSUTC
LatitudeDGPSDM.mWGS84
LongitudeDGPSDM.mWGS84
HeadingGyrodeg 
SOGDGPSknotsSpeed over ground
COGDGPSdegCourse over ground
DepthEcho soundermeters200 kHz
Missing or incorrect values are displayed as -999
Navigation data collected by the RV Zeeleeuw from 2007-03-30 07:35:03 to 2007-03-30 14:25:15
Time Latitude Longitude Heading SOG COG Depth
2007-03-30 07:36:11 51°13.616 2°56.037 113 3.3 289 -999
2007-03-30 07:37:11 51°13.643 2°55.946 125.5 3.8 300 5
2007-03-30 07:38:11 51°13.674 2°55.877 136.5 2.5 311 4.8
2007-03-30 07:39:10 51°13.683 2°55.86 133.4 0.4 309 10
2007-03-30 07:40:11 51°13.705 2°55.81 127 3 304 -999
2007-03-30 07:41:11 51°13.732 2°55.734 117.9 3.3 297 -999
2007-03-30 07:42:10 51°13.744 2°55.7 95 0.5 60 11.7
2007-03-30 07:43:11 51°13.743 2°55.683 71.1 1.1 257 5.3
2007-03-30 07:44:10 51°13.748 2°55.683 43.4 1.3 28 11.6
2007-03-30 07:45:09 51°13.785 2°55.679 344.8 3.4 338 11.3
2007-03-30 07:46:09 51°13.864 2°55.614 337.2 6.9 333 11.2
2007-03-30 07:47:07 51°13.986 2°55.519 339.3 9.4 334 11.3
2007-03-30 07:48:08 51°14.134 2°55.409 338.5 9.7 332 11.5
2007-03-30 07:49:08 51°14.264 2°55.256 319.8 9.8 313 11.3
2007-03-30 07:50:08 51°14.378 2°55.029 309.1 11.9 302 10.6
2007-03-30 07:51:08 51°14.474 2°54.718 295.5 13.6 290 11
2007-03-30 07:52:08 51°14.586 2°54.407 316.8 13.6 312 11.1
2007-03-30 07:53:08 51°14.772 2°54.215 339.8 13.4 333 9.9
2007-03-30 07:54:08 51°14.969 2°54.053 340.5 13.4 334 9.7
2007-03-30 07:55:08 51°15.168 2°53.892 340.4 13.5 334 9.4
2007-03-30 07:56:07 51°15.366 2°53.732 339.5 13.6 332 10.2
2007-03-30 07:57:08 51°15.568 2°53.564 340.5 13.4 334 10.8
2007-03-30 07:58:08 51°15.769 2°53.406 340.6 13.5 334 11.4
2007-03-30 07:59:08 51°15.968 2°53.246 339.9 13.3 333 11.8
2007-03-30 08:00:08 51°16.167 2°53.092 340.8 13.2 334 11.9
2007-03-30 08:01:08 51°16.366 2°52.94 340.4 13.2 335 12.1
2007-03-30 08:02:08 51°16.566 2°52.792 341.6 13.2 337 11.9
2007-03-30 08:03:08 51°16.766 2°52.653 342.2 13 336 10.1
2007-03-30 08:04:08 51°16.966 2°52.513 342.3 13.1 336 10.3
2007-03-30 08:05:08 51°17.164 2°52.372 342.6 13.1 336 10.6
2007-03-30 08:06:08 51°17.364 2°52.229 342.5 13.1 336 10.9
2007-03-30 08:07:08 51°17.562 2°52.087 342.7 13.1 335 11.1
2007-03-30 08:08:08 51°17.752 2°51.916 336.2 13.1 329 10.7
2007-03-30 08:09:08 51°17.935 2°51.725 328 13.4 320 10.7
2007-03-30 08:10:08 51°18.103 2°51.488 326.8 13.5 318 11.8
2007-03-30 08:11:08 51°18.272 2°51.249 326.6 13.6 318 13.2
2007-03-30 08:12:08 51°18.441 2°51.008 327.1 13.6 318 14.2
2007-03-30 08:13:08 51°18.611 2°50.769 327 13.6 318 15
2007-03-30 08:14:08 51°18.76 2°50.569 332.7 9.8 324 15.3
2007-03-30 08:15:08 51°18.823 2°50.36 284.4 9.2 277 15
2007-03-30 08:16:08 51°18.852 2°50.113 292.6 9.5 285 13.8
2007-03-30 08:17:08 51°18.878 2°49.908 266.3 6 259 13.1
2007-03-30 08:18:08 51°18.853 2°49.797 263.7 2.8 252 12.3
2007-03-30 08:19:08 51°18.842 2°49.777 285.8 0.8 199 12.2
2007-03-30 08:20:08 51°18.828 2°49.766 295.3 1 216 12.4
2007-03-30 08:21:08 51°18.816 2°49.747 303.1 1.1 229 12.3
2007-03-30 08:22:08 51°18.806 2°49.724 313.9 1.1 238 12.3
2007-03-30 08:23:08 51°18.796 2°49.699 323.3 1.1 244 12.4
2007-03-30 08:24:08 51°18.79 2°49.675 332.2 1 246 12.2
2007-03-30 08:25:08 51°18.783 2°49.651 340.1 0.9 249 12.2
2007-03-30 08:26:08 51°18.78 2°49.627 348.8 1 286 12.1
2007-03-30 08:27:08 51°18.811 2°49.631 40.6 3.4 40 12.1
2007-03-30 08:28:08 51°18.883 2°49.768 52.1 9.2 48 12.2
2007-03-30 08:29:08 51°19.007 2°50.004 54.2 12.6 50 12.9
2007-03-30 08:30:08 51°19.143 2°50.261 53.9 12.6 48 13.5
2007-03-30 08:31:08 51°19.281 2°50.519 54.3 12.7 50 13.9
2007-03-30 08:32:08 51°19.409 2°50.757 54.9 9.2 50 14.5
2007-03-30 08:33:08 51°19.475 2°50.891 56.2 4.8 52 15.1
2007-03-30 08:34:08 51°19.506 2°50.971 71.1 2.6 71 15.3
2007-03-30 08:35:08 51°19.515 2°51.041 77.7 2.9 79 15.6
2007-03-30 08:36:08 51°19.529 2°51.127 72.9 3.8 70 16
2007-03-30 08:37:08 51°19.556 2°51.224 66 3.9 63 16
2007-03-30 08:38:08 51°19.587 2°51.305 58.9 3.4 54 16.2
2007-03-30 08:39:08 51°19.623 2°51.373 54.2 3.3 49 16.3
2007-03-30 08:40:08 51°19.657 2°51.441 57.7 3.3 53 16.3
2007-03-30 08:41:08 51°19.688 2°51.513 61.1 3.3 57 16.4
2007-03-30 08:42:08 51°19.719 2°51.583 55.1 3.3 50 16.3
2007-03-30 08:43:08 51°19.759 2°51.643 45.1 3.3 40 16.5
2007-03-30 08:44:08 51°19.801 2°51.698 50 3.2 45 16.6
2007-03-30 08:45:08 51°19.833 2°51.766 59.9 3.3 56 16.9
2007-03-30 08:46:08 51°19.865 2°51.839 57 3.4 53 17.1
2007-03-30 08:47:08 51°19.9 2°51.908 52.6 3.4 49 17.1
2007-03-30 08:48:08 51°19.938 2°51.973 52.2 3.4 48 17
2007-03-30 08:49:08 51°19.973 2°52.043 59.9 3.4 56 17
2007-03-30 08:50:08 51°20.004 2°52.118 62.3 3.4 59 17.4
2007-03-30 08:51:08 51°20.032 2°52.195 63.2 3.4 59 17.7
2007-03-30 08:52:08 51°20.063 2°52.27 60.5 3.4 55 17.7
2007-03-30 08:53:08 51°20.095 2°52.344 59.6 3.4 55 17.7
2007-03-30 08:54:08 51°20.129 2°52.417 58.7 3.4 53 17.7
2007-03-30 08:55:08 51°20.163 2°52.49 58 3.4 52 17.7
2007-03-30 08:56:08 51°20.198 2°52.562 57.3 3.4 51 17.8
2007-03-30 08:57:08 51°20.232 2°52.634 60.9 3.4 57 17.8
2007-03-30 08:58:08 51°20.262 2°52.71 60.6 3.4 56 17.9
2007-03-30 08:59:08 51°20.297 2°52.78 53.4 3.4 49 17.9
2007-03-30 09:00:08 51°20.332 2°52.853 61.4 3.5 58 18
2007-03-30 09:01:08 51°20.356 2°52.937 71.3 3.5 69 17.9
2007-03-30 09:02:08 51°20.379 2°53.023 64.1 3.5 62 17.9
2007-03-30 09:03:08 51°20.41 2°53.103 59 3.5 57 18
2007-03-30 09:04:08 51°20.444 2°53.179 57 3.5 55 18
2007-03-30 09:05:08 51°20.479 2°53.255 54.4 3.5 52 18.1
2007-03-30 09:06:08 51°20.518 2°53.324 50 3.5 46 18.1
2007-03-30 09:07:08 51°20.56 2°53.39 50.1 3.5 46 18.2
2007-03-30 09:08:08 51°20.596 2°53.463 59.8 3.5 57 18.1
2007-03-30 09:09:08 51°20.628 2°53.542 60.5 3.6 57 18.2
2007-03-30 09:10:08 51°20.661 2°53.624 60.7 3.7 58 18.3
2007-03-30 09:11:08 51°20.691 2°53.711 68.2 3.7 64 18.3
2007-03-30 09:12:08 51°20.712 2°53.804 73.6 3.7 71 18.3
2007-03-30 09:13:08 51°20.727 2°53.898 86.9 3.6 85 18.4
2007-03-30 09:14:08 51°20.717 2°53.991 114.5 3.6 114 18.3
2007-03-30 09:15:08 51°20.679 2°54.063 144.4 3.6 141 18.3
2007-03-30 09:16:08 51°20.636 2°54.103 159.2 2.5 155 18.2
2007-03-30 09:17:08 51°20.603 2°54.126 161.3 1.8 156 18.2
2007-03-30 09:18:08 51°20.577 2°54.144 161.6 1.9 159 18.2
2007-03-30 09:19:08 51°20.538 2°54.173 158.7 2.6 154 18.1
2007-03-30 09:20:08 51°20.507 2°54.201 152.5 1.8 148 18
2007-03-30 09:21:08 51°20.486 2°54.225 147.6 1.3 142 17.9
2007-03-30 09:22:08 51°20.473 2°54.242 144.3 0.9 137 17.9
2007-03-30 09:23:08 51°20.465 2°54.256 141.7 0.7 133 17.8
2007-03-30 09:24:08 51°20.436 2°54.305 137.6 3.8 132 17.7
2007-03-30 09:25:08 51°20.405 2°54.371 129.8 2.6 124 17.4
2007-03-30 09:26:08 51°20.386 2°54.42 127.5 1.8 121 17.2
2007-03-30 09:27:08 51°20.373 2°54.456 127.4 1.4 118 17.2
2007-03-30 09:28:08 51°20.362 2°54.488 129.2 2 123 17
2007-03-30 09:29:08 51°20.315 2°54.557 156.1 5.4 149 16.7
2007-03-30 09:30:09 51°20.202 2°54.545 212.1 8 211 16.2
2007-03-30 09:31:09 51°20.09 2°54.404 221.2 8.9 216 16
2007-03-30 09:32:07 51°19.975 2°54.264 222.6 9 218 15
2007-03-30 09:33:09 51°19.838 2°54.084 224.3 11 220 15.4
2007-03-30 09:34:09 51°19.692 2°53.892 223.6 11.7 219 15.2
2007-03-30 09:35:08 51°19.544 2°53.697 223.9 12.1 219 14.9
2007-03-30 09:36:08 51°19.386 2°53.485 223.5 12.5 220 14.8
2007-03-30 09:37:09 51°19.226 2°53.269 224.1 12.4 221 14.6
2007-03-30 09:38:09 51°19.068 2°53.055 224.3 12.4 220 14.3
2007-03-30 09:39:09 51°18.909 2°52.843 224.7 12.3 219 14
2007-03-30 09:40:09 51°18.716 2°52.754 203.3 12.5 199 13.9
2007-03-30 09:41:09 51°18.548 2°52.566 227.8 12.5 225 13.7
2007-03-30 09:42:07 51°18.407 2°52.337 228.3 12.4 224 13.6
2007-03-30 09:43:08 51°18.259 2°52.101 229.5 12.4 225 13.2
2007-03-30 09:44:08 51°18.111 2°51.871 228 12.5 224 13
2007-03-30 09:45:08 51°17.962 2°51.64 227.5 12.5 224 12.7
2007-03-30 09:46:08 51°17.812 2°51.414 227.5 12.3 222 12.6
2007-03-30 09:47:08 51°17.662 2°51.188 226.9 12.4 223 12
2007-03-30 09:48:08 51°17.514 2°50.959 228.3 12.4 225 11.7
2007-03-30 09:49:08 51°17.366 2°50.733 227.9 12.1 223 12.2
2007-03-30 09:50:08 51°17.219 2°50.516 228 12.2 224 11.9
2007-03-30 09:51:08 51°17.072 2°50.294 227.1 12.1 222 11.9
2007-03-30 09:52:08 51°16.919 2°50.081 225.7 12.1 221 13.9
2007-03-30 09:53:08 51°16.767 2°49.871 224.8 12 220 15.3
2007-03-30 09:54:08 51°16.614 2°49.663 224.4 12 220 16.8
2007-03-30 09:55:08 51°16.462 2°49.456 225.2 12 220 16.6
2007-03-30 09:56:07 51°16.312 2°49.256 225 11.9 219 16.1
2007-03-30 09:57:08 51°16.158 2°49.047 225.2 11.9 221 15.7
2007-03-30 09:58:08 51°16.007 2°48.841 225 11.9 220 15.2
2007-03-30 09:59:07 51°15.857 2°48.64 225.4 12 220 14.6
2007-03-30 10:00:08 51°15.704 2°48.43 225.5 11.9 221 13.8
2007-03-30 10:01:08 51°15.554 2°48.225 225.9 11.9 220 13.2
2007-03-30 10:02:08 51°15.405 2°48.018 226 11.7 221 12.7
2007-03-30 10:03:08 51°15.257 2°47.814 225 11.8 221 12.2
2007-03-30 10:04:08 51°15.108 2°47.612 224.3 11.8 222 12.8
2007-03-30 10:05:08 51°14.96 2°47.407 225.1 11.6 221 14.4
2007-03-30 10:06:08 51°14.813 2°47.202 225.8 11.7 223 15.4
2007-03-30 10:07:08 51°14.665 2°46.997 225.4 11.7 221 15.5
2007-03-30 10:08:08 51°14.517 2°46.793 225.1 11.7 221 15.3
2007-03-30 10:09:08 51°14.37 2°46.59 225.9 11.7 221 14.4
2007-03-30 10:10:08 51°14.222 2°46.387 225.5 11.7 221 13.8
2007-03-30 10:11:08 51°14.077 2°46.183 226.3 11.6 222 12.6
2007-03-30 10:12:08 51°13.931 2°45.978 225.4 11.7 220 11.9
2007-03-30 10:13:08 51°13.786 2°45.771 225.3 11.6 222 11.3
2007-03-30 10:14:08 51°13.64 2°45.566 225.5 11.6 221 11.1
2007-03-30 10:15:08 51°13.494 2°45.362 224.7 11.7 221 12.5
2007-03-30 10:16:08 51°13.349 2°45.16 225.2 11.6 222 13.9
2007-03-30 10:17:08 51°13.211 2°44.946 229.5 11.6 225 14.4
2007-03-30 10:18:08 51°13.077 2°44.725 229.7 11.6 225 14.9
2007-03-30 10:19:08 51°12.94 2°44.506 227.9 11.7 222 14.9
2007-03-30 10:20:08 51°12.781 2°44.332 216.5 11.7 212 15.1
2007-03-30 10:21:08 51°12.616 2°44.17 216.9 11.8 212 14.5
2007-03-30 10:22:08 51°12.449 2°44.006 217.4 11.8 213 13.9
2007-03-30 10:23:08 51°12.292 2°43.819 223.9 11.7 221 12.9
2007-03-30 10:24:08 51°12.168 2°43.577 239.8 12.1 238 11.9
2007-03-30 10:25:08 51°12.073 2°43.299 245.3 11.9 243 12.3
2007-03-30 10:26:08 51°11.981 2°43.02 245.2 11.9 241 12.7
2007-03-30 10:27:08 51°11.882 2°42.747 242.7 11.9 240 12.5
2007-03-30 10:28:08 51°11.774 2°42.483 239.3 11.9 236 12.8
2007-03-30 10:29:08 51°11.663 2°42.221 239.1 11.9 236 12.9
2007-03-30 10:30:08 51°11.553 2°41.959 239.5 11.9 236 13.2
2007-03-30 10:31:08 51°11.444 2°41.695 238.7 11.9 236 13.9
2007-03-30 10:32:08 51°11.333 2°41.435 239.5 11.8 237 14.7
2007-03-30 10:33:08 51°11.224 2°41.173 239.5 11.9 236 15
2007-03-30 10:34:08 51°11.113 2°40.913 238.8 11.9 236 15.2
2007-03-30 10:35:08 51°11.003 2°40.654 239.5 11.8 236 15.7
2007-03-30 10:36:08 51°10.893 2°40.394 239.5 11.8 236 16
2007-03-30 10:37:08 51°10.782 2°40.135 239.5 11.9 235 16.6
2007-03-30 10:38:08 51°10.671 2°39.876 238.6 11.9 236 17
2007-03-30 10:39:08 51°10.559 2°39.616 239.3 11.9 236 17.4
2007-03-30 10:40:08 51°10.432 2°39.371 232.4 12 228 17.5
2007-03-30 10:41:08 51°10.317 2°39.165 233.7 9.7 228 18
2007-03-30 10:42:08 51°10.21 2°38.976 233.1 9.5 227 17.9
2007-03-30 10:43:08 51°10.103 2°38.789 233.3 9.2 227 17.7
2007-03-30 10:44:08 51°10.011 2°38.615 236.6 8.3 232 17.7
2007-03-30 10:45:08 51°9.93 2°38.436 238.7 8.3 234 17.5
2007-03-30 10:46:08 51°9.847 2°38.259 238.2 8.4 234 17.3
2007-03-30 10:47:08 51°9.777 2°38.105 238 5.7 232 17.2
2007-03-30 10:48:08 51°9.728 2°38.008 238 4.1 231 17
2007-03-30 10:49:08 51°9.689 2°37.931 237.9 3.6 231 16.8
2007-03-30 10:50:08 51°9.652 2°37.861 238.6 3.4 230 16.7
2007-03-30 10:51:08 51°9.618 2°37.793 238.8 3.3 229 16.5
2007-03-30 10:52:08 51°9.583 2°37.728 238.2 3.2 229 16.2
2007-03-30 10:53:08 51°9.551 2°37.664 242 3.1 235 16.1
2007-03-30 10:54:08 51°9.526 2°37.599 247.4 2.4 241 16
2007-03-30 10:55:08 51°9.518 2°37.554 261.9 1.6 265 16.1
2007-03-30 10:56:08 51°9.522 2°37.521 272.1 1 297 16.4
2007-03-30 10:57:08 51°9.532 2°37.507 283 0.8 357 16.6
2007-03-30 10:58:08 51°9.546 2°37.511 296.7 0.9 19 16.8
2007-03-30 10:59:08 51°9.56 2°37.524 305.5 1.1 33 16.9
2007-03-30 11:00:08 51°9.574 2°37.543 312.2 1.1 43 17
2007-03-30 11:01:08 51°9.587 2°37.565 318.1 1.2 51 17
2007-03-30 11:02:08 51°9.597 2°37.589 320.6 1.1 58 16.9
2007-03-30 11:03:08 51°9.607 2°37.615 324.8 1.1 61 17
2007-03-30 11:04:08 51°9.616 2°37.643 328.4 1.2 62 17.1
2007-03-30 11:05:08 51°9.625 2°37.67 329.9 1.2 64 17.1
2007-03-30 11:06:08 51°9.633 2°37.697 330.2 1.1 67 17
2007-03-30 11:07:08 51°9.646 2°37.716 324.6 1.9 356 17.1
2007-03-30 11:08:08 51°9.669 2°37.624 265.1 6.2 265 17.8
2007-03-30 11:09:08 51°9.638 2°37.381 255.9 10.9 253 18.2
2007-03-30 11:10:08 51°9.579 2°37.094 254.7 11.8 252 18.6
2007-03-30 11:11:08 51°9.517 2°36.796 255.9 11.9 251 18.2
2007-03-30 11:12:08 51°9.456 2°36.495 256.5 12 253 18.2
2007-03-30 11:13:09 51°9.395 2°36.187 255.7 12 252 18.6
2007-03-30 11:14:08 51°9.336 2°35.889 256.2 11.9 253 19.2
2007-03-30 11:15:09 51°9.275 2°35.579 255.7 12.3 253 19.2
2007-03-30 11:16:08 51°9.216 2°35.272 253.6 12.3 253 18.9
2007-03-30 11:17:09 51°9.156 2°34.96 254.7 12 254 18.8
2007-03-30 11:18:09 51°9.098 2°34.654 254.3 11.9 253 19.1
2007-03-30 11:19:09 51°9.04 2°34.354 253.7 11.8 253 18.3
2007-03-30 11:20:09 51°8.989 2°34.088 254.7 8.5 254 18.5
2007-03-30 11:21:08 51°8.958 2°33.962 237.5 3.3 231 18.1
2007-03-30 11:22:09 51°8.938 2°33.953 198.8 0.9 99 18.3
2007-03-30 11:23:09 51°8.938 2°33.983 175.3 1.2 86 18.1
2007-03-30 11:24:09 51°8.939 2°34.016 170.5 1.2 82 18
2007-03-30 11:25:09 51°8.943 2°34.049 164 1.3 79 18.1
2007-03-30 11:26:09 51°8.947 2°34.081 158 1.3 77 18.5
2007-03-30 11:27:09 51°8.952 2°34.113 152.5 1.3 78 18.3
2007-03-30 11:28:08 51°8.956 2°34.144 150.6 1.2 74 18.2
2007-03-30 11:29:09 51°8.962 2°34.175 148.4 1.2 73 18.3
2007-03-30 11:30:09 51°8.968 2°34.205 144.1 1.2 71 18.3
2007-03-30 11:31:09 51°8.974 2°34.236 140.7 1.2 70 18.2
2007-03-30 11:32:09 51°8.981 2°34.265 139.8 1.2 72 18.3
2007-03-30 11:33:09 51°8.987 2°34.295 137.9 1.2 72 18.2
2007-03-30 11:34:09 51°8.993 2°34.324 137.2 1.1 72 18.4
2007-03-30 11:35:09 51°8.998 2°34.353 135.8 1.2 72 18.7
2007-03-30 11:36:09 51°9.004 2°34.384 130.7 1.3 81 18.4
2007-03-30 11:37:09 51°8.995 2°34.438 151.3 1.9 109 18.6
2007-03-30 11:38:09 51°8.988 2°34.486 144.5 2.1 111 18.7
2007-03-30 11:39:09 51°8.944 2°34.528 182.3 4.8 167 18.8
2007-03-30 11:40:09 51°8.818 2°34.556 184.6 8.9 176 19.2
2007-03-30 11:41:09 51°8.664 2°34.558 186.4 9.5 180 19.2
2007-03-30 11:42:09 51°8.521 2°34.561 186.4 6.9 177 16.8
2007-03-30 11:43:09 51°8.474 2°34.584 140 0.5 37 14.3
2007-03-30 11:44:08 51°8.479 2°34.592 139.3 0.4 48 14.4
2007-03-30 11:45:10 51°8.484 2°34.6 148.8 0.4 58 14.4
2007-03-30 11:46:09 51°8.487 2°34.61 156.9 0.4 62 14.5
2007-03-30 11:47:09 51°8.491 2°34.62 161.4 0.4 64 14.5
2007-03-30 11:48:08 51°8.495 2°34.631 162.1 0.5 71 14.5
2007-03-30 11:49:07 51°8.497 2°34.643 158.5 0.5 77 14.3
2007-03-30 11:50:08 51°8.498 2°34.657 155.1 0.5 86 14.2
2007-03-30 11:51:08 51°8.499 2°34.671 151.6 0.6 88 14
2007-03-30 11:52:08 51°8.499 2°34.687 145.8 0.6 92 13.8
2007-03-30 11:53:08 51°8.499 2°34.704 138.9 0.7 91 13.6
2007-03-30 11:54:08 51°8.499 2°34.722 135.6 0.7 90 13.4
2007-03-30 11:55:08 51°8.499 2°34.738 134.9 0.7 91 13.2
2007-03-30 11:56:08 51°8.498 2°34.755 134.2 0.6 91 13
2007-03-30 11:57:09 51°8.497 2°34.772 134.4 0.6 93 12.9
2007-03-30 11:58:08 51°8.497 2°34.788 133.8 0.6 95 12.8
2007-03-30 11:59:09 51°8.496 2°34.805 132.9 0.6 96 12.7
2007-03-30 12:00:09 51°8.495 2°34.822 130.6 0.7 95 12.5
2007-03-30 12:01:09 51°8.495 2°34.84 129.5 0.7 90 12.2
2007-03-30 12:02:09 51°8.494 2°34.858 129.5 0.7 92 12.2
2007-03-30 12:03:09 51°8.494 2°34.876 129.9 0.7 92 12
2007-03-30 12:04:09 51°8.493 2°34.893 128.3 0.7 92 11.8
2007-03-30 12:05:09 51°8.492 2°34.91 127.4 0.7 94 11.7
2007-03-30 12:06:09 51°8.491 2°34.928 125 0.6 91 11.6
2007-03-30 12:07:09 51°8.49 2°34.947 124.1 1.3 103 11.4
2007-03-30 12:08:09 51°8.497 2°35.019 68.9 3.8 62 11.2
2007-03-30 12:09:09 51°8.561 2°35.057 347.8 4.7 345 12
2007-03-30 12:10:09 51°8.664 2°34.931 319.9 9.8 320 16.6
2007-03-30 12:11:09 51°8.778 2°34.798 332.1 6.3 335 18.9
2007-03-30 12:12:09 51°8.837 2°34.786 1 1.8 10 18.7
2007-03-30 12:13:11 51°8.844 2°34.792 1.1 0.4 48 18.8
2007-03-30 12:14:13 51°8.848 2°34.8 341.2 0.4 47 -999
2007-03-30 12:15:12 51°8.853 2°34.807 325.5 0.5 42 18.7
2007-03-30 12:16:10 51°8.858 2°34.814 312 0.4 34 18.9
2007-03-30 12:17:10 51°8.864 2°34.819 304.1 0.4 27 18.7
2007-03-30 12:18:09 51°8.869 2°34.822 301.2 0.4 20 18.6
2007-03-30 12:19:09 51°8.876 2°34.824 303.7 0.4 7 18.7
2007-03-30 12:20:09 51°8.883 2°34.826 309.4 0.5 9 18.7
2007-03-30 12:21:09 51°8.891 2°34.827 314 0.5 12 18.5
2007-03-30 12:22:09 51°8.9 2°34.829 319 0.5 6 18.7
2007-03-30 12:23:09 51°8.908 2°34.829 320.5 0.5 6 18.7
2007-03-30 12:24:09 51°8.918 2°34.826 317.2 1.2 329 18.4
2007-03-30 12:25:09 51°8.953 2°34.79 331.9 3.4 341 18.6
2007-03-30 12:26:09 51°9.023 2°34.821 44.7 5.1 43 19.1
2007-03-30 12:27:09 51°9.029 2°34.943 132.6 4.7 123 18.8
2007-03-30 12:28:09 51°8.935 2°35.017 168.3 8.1 158 18.3
2007-03-30 12:29:09 51°8.814 2°35.162 148.3 9.7 142 17.8
2007-03-30 12:30:09 51°8.69 2°35.315 148.2 8.1 140 13.3
2007-03-30 12:31:09 51°8.625 2°35.428 122.3 4.8 111 10.9
2007-03-30 12:32:09 51°8.645 2°35.532 52.6 3.7 49 10.7
2007-03-30 12:33:09 51°8.687 2°35.589 39.4 3.7 35 11.2
2007-03-30 12:34:09 51°8.739 2°35.655 46.8 4.2 44 11.8
2007-03-30 12:35:08 51°8.775 2°35.744 73.3 4 68 12
2007-03-30 12:36:08 51°8.791 2°35.843 84.9 3.6 79 11.8
2007-03-30 12:37:08 51°8.801 2°35.927 84.2 3 78 11.4
2007-03-30 12:38:08 51°8.813 2°36.006 80 3.2 76 11.2
2007-03-30 12:39:08 51°8.825 2°36.092 91.6 3.3 86 10.9
2007-03-30 12:40:08 51°8.822 2°36.182 100 3.4 95 10.7
2007-03-30 12:41:08 51°8.819 2°36.274 97.5 3.5 92 10.4
2007-03-30 12:42:08 51°8.815 2°36.366 101.4 3.5 96 10
2007-03-30 12:43:09 51°8.807 2°36.459 106.6 3.5 102 10
2007-03-30 12:44:08 51°8.79 2°36.545 113.4 3.5 108 9.6
2007-03-30 12:45:08 51°8.771 2°36.63 114.9 3.4 111 9.4
2007-03-30 12:46:08 51°8.751 2°36.714 116.1 3.4 111 9.4
2007-03-30 12:47:08 51°8.733 2°36.798 112.4 3.4 107 9.5
2007-03-30 12:48:08 51°8.719 2°36.884 108.7 3.3 103 9.7
2007-03-30 12:49:09 51°8.706 2°36.972 106.5 3.4 102 9.8
2007-03-30 12:50:09 51°8.701 2°37.059 93.4 3.2 88 9.8
2007-03-30 12:51:08 51°8.704 2°37.144 91.6 3.3 87 9.8
2007-03-30 12:52:08 51°8.708 2°37.231 85.5 3.3 81 9.8
2007-03-30 12:53:08 51°8.719 2°37.318 82.3 3.4 78 9.8
2007-03-30 12:54:08 51°8.732 2°37.406 80.8 3.4 75 9.8
2007-03-30 12:55:08 51°8.747 2°37.493 78.3 3.4 74 9.7
2007-03-30 12:56:08 51°8.763 2°37.578 76.2 3.4 72 9.6
2007-03-30 12:57:09 51°8.782 2°37.664 74.7 3.4 71 9.7
2007-03-30 12:58:08 51°8.8 2°37.747 74.5 3.4 71 9.8
2007-03-30 12:59:08 51°8.818 2°37.831 73.1 3.3 70 9.7
2007-03-30 13:00:08 51°8.838 2°37.913 72.1 3.3 69 9.6
2007-03-30 13:01:08 51°8.858 2°37.994 71.3 3.3 68 9.5
2007-03-30 13:02:08 51°8.879 2°38.074 70 3.3 67 9.6
2007-03-30 13:03:08 51°8.901 2°38.154 69.1 3.3 65 9.6
2007-03-30 13:04:08 51°8.925 2°38.232 68 3.3 65 9.7
2007-03-30 13:05:08 51°8.948 2°38.31 67.8 3.3 65 9.6
2007-03-30 13:06:08 51°8.971 2°38.388 67.5 3.3 65 9.7
2007-03-30 13:07:08 51°8.994 2°38.465 66 3.2 62 9.7
2007-03-30 13:08:08 51°9.019 2°38.54 65.5 3.2 64 9.7
2007-03-30 13:09:09 51°9.031 2°38.622 89.9 3.1 92 9.6
2007-03-30 13:10:08 51°9.018 2°38.7 110.8 3.1 115 9.5
2007-03-30 13:11:08 51°8.981 2°38.75 160.1 2.9 164 9.2
2007-03-30 13:12:08 51°8.934 2°38.743 192.3 2.6 194 9
2007-03-30 13:13:08 51°8.896 2°38.728 190.6 2.1 194 8.8
2007-03-30 13:14:08 51°8.866 2°38.72 180 1.7 187 8.7
2007-03-30 13:15:08 51°8.841 2°38.718 172.4 1.3 182 8.6
2007-03-30 13:16:09 51°8.822 2°38.716 166.5 1 182 8.5
2007-03-30 13:17:09 51°8.799 2°38.739 127.5 2.6 122 8.4
2007-03-30 13:18:09 51°8.809 2°38.82 57.8 3.9 48 8.5
2007-03-30 13:19:09 51°8.906 2°38.901 31.9 9.5 27 8.5
2007-03-30 13:20:09 51°9.084 2°39.042 32.5 12.9 27 8.9
2007-03-30 13:21:09 51°9.28 2°39.199 31.7 13.3 27 9.6
2007-03-30 13:22:09 51°9.479 2°39.358 31.3 13.4 26 10.3
2007-03-30 13:23:09 51°9.678 2°39.52 31.9 13.4 26 11.1
2007-03-30 13:24:09 51°9.875 2°39.687 32.4 13.5 28 11.7
2007-03-30 13:25:09 51°10.071 2°39.861 35.7 13.5 32 12.6
2007-03-30 13:26:09 51°10.261 2°40.055 36.4 13.6 33 13.8
2007-03-30 13:27:09 51°10.433 2°40.289 47.6 13.7 43 14.2
2007-03-30 13:28:09 51°10.594 2°40.546 52.5 13.7 48 14
2007-03-30 13:29:09 51°10.72 2°40.848 64.8 13.7 61 13.8
2007-03-30 13:30:09 51°10.834 2°41.161 64 13.7 59 13.5
2007-03-30 13:31:09 51°10.95 2°41.472 64.8 13.6 60 13.3
2007-03-30 13:32:09 51°11.065 2°41.787 64.3 13.8 60 13.2
2007-03-30 13:33:09 51°11.182 2°42.1 63.8 13.7 59 13
2007-03-30 13:34:09 51°11.299 2°42.41 63.4 13.6 59 12.7
2007-03-30 13:35:09 51°11.391 2°42.735 78.1 13.5 74 12.5
2007-03-30 13:36:09 51°11.448 2°43.082 79.1 13.6 75 12.6
2007-03-30 13:37:09 51°11.5 2°43.432 82.4 13.5 78 12.8
2007-03-30 13:38:09 51°11.547 2°43.781 82 13.5 77 13.1
2007-03-30 13:39:09 51°11.596 2°44.132 82 13.6 78 13.3
2007-03-30 13:40:09 51°11.646 2°44.481 81.5 13.5 78 13.6
2007-03-30 13:41:09 51°11.696 2°44.83 81.2 13.5 76 13.7
2007-03-30 13:42:09 51°11.748 2°45.179 81.2 13.5 77 13.8
2007-03-30 13:43:09 51°11.799 2°45.527 82 13.4 77 13.9
2007-03-30 13:44:09 51°11.85 2°45.874 81.3 13.5 76 13.9
2007-03-30 13:45:09 51°11.903 2°46.219 81.2 13.4 76 13.9
2007-03-30 13:46:09 51°11.954 2°46.566 81.7 13.5 77 13.8
2007-03-30 13:47:09 51°12.011 2°46.911 77.2 13.5 72 13.6
2007-03-30 13:48:09 51°12.084 2°47.25 76 13.5 71 13.6
2007-03-30 13:49:09 51°12.156 2°47.588 76.4 13.5 72 13.5
2007-03-30 13:50:09 51°12.233 2°47.919 71.7 13.3 67 13.2
2007-03-30 13:51:09 51°12.332 2°48.238 68.9 13.4 64 13
2007-03-30 13:52:09 51°12.432 2°48.555 67.2 13.4 62 12.9
2007-03-30 13:53:09 51°12.536 2°48.868 67.3 13.4 62 12.8
2007-03-30 13:54:09 51°12.639 2°49.18 67.2 13.3 62 12.6
2007-03-30 13:55:09 51°12.743 2°49.491 66.7 13.3 62 12.4
2007-03-30 13:56:09 51°12.848 2°49.803 66.7 13.3 62 12.3
2007-03-30 13:57:09 51°12.95 2°50.118 67.5 13.5 63 12.1
2007-03-30 13:58:09 51°13.054 2°50.434 66 13.4 61 11.9
2007-03-30 13:59:09 51°13.166 2°50.74 63.6 13.3 59 11.8
2007-03-30 14:00:09 51°13.278 2°51.045 64.3 13.3 59 11.8
2007-03-30 14:01:09 51°13.39 2°51.348 64.2 13.3 59 11.7
2007-03-30 14:02:09 51°13.502 2°51.65 64.4 13 60 11.5
2007-03-30 14:03:09 51°13.608 2°51.944 64.5 12.5 60 11.4
2007-03-30 14:04:09 51°13.709 2°52.218 63.9 11.8 60 11.3
2007-03-30 14:05:09 51°13.808 2°52.49 64.3 11.9 60 11.3
2007-03-30 14:06:09 51°13.907 2°52.762 64.4 11.9 59 11.1
2007-03-30 14:07:09 51°14.007 2°53.034 64.1 11.8 60 10.9
2007-03-30 14:08:09 51°14.107 2°53.305 63.9 11.8 60 10.7
2007-03-30 14:09:09 51°14.206 2°53.577 64 11.9 59 10.3
2007-03-30 14:10:09 51°14.301 2°53.849 66.6 11.3 62 10.1
2007-03-30 14:11:09 51°14.376 2°54.137 78.4 12.3 74 10.1
2007-03-30 14:12:09 51°14.462 2°54.433 75.4 12.3 74 11.3
2007-03-30 14:13:09 51°14.444 2°54.751 107.1 12.3 106 11.4
2007-03-30 14:14:09 51°14.361 2°55.051 118.9 12.3 119 10.9
2007-03-30 14:15:09 51°14.237 2°55.309 137.2 11.7 137 11.9
2007-03-30 14:16:09 51°14.11 2°55.43 158.4 7 156 11.8
2007-03-30 14:17:09 51°14.031 2°55.481 159.1 4 157 11.7
2007-03-30 14:18:09 51°13.975 2°55.521 157.5 4 155 11.8
2007-03-30 14:19:09 51°13.906 2°55.572 158.2 5.3 155 11.5
2007-03-30 14:20:09 51°13.796 2°55.666 150 8.4 144 11.7
2007-03-30 14:21:09 51°13.697 2°55.813 132.7 6.9 129 11.1
2007-03-30 14:22:09 51°13.644 2°55.935 123.7 4.5 121 10.7
2007-03-30 14:23:09 51°13.617 2°56.024 116.7 3.3 112 11.3
2007-03-30 14:24:09 51°13.604 2°56.084 111.8 1.3 108 6.9
2007-03-30 14:25:09 51°13.601 2°56.099 115.2 0.2 112 5.4